sensor_id;sensor_type;location;lat;lon;timestamp;P1;durP1;ratioP1;P2;durP2;ratioP2
82526;SDS011;72188;41.974;21.456;2023-08-24T00:00:56;27.08;;;18.58;;
82526;SDS011;72188;41.974;21.456;2023-08-24T00:03:22;33.85;;;18.08;;
82526;SDS011;72188;41.974;21.456;2023-08-24T00:05:48;28.38;;;19.00;;
82526;SDS011;72188;41.974;21.456;2023-08-24T00:08:14;28.23;;;17.83;;
82526;SDS011;72188;41.974;21.456;2023-08-24T00:10:42;31.70;;;19.15;;
82526;SDS011;72188;41.974;21.456;2023-08-24T00:13:09;33.92;;;19.73;;
82526;SDS011;72188;41.974;21.456;2023-08-24T00:15:35;29.73;;;19.30;;
82526;SDS011;72188;41.974;21.456;2023-08-24T00:18:02;31.13;;;18.55;;
82526;SDS011;72188;41.974;21.456;2023-08-24T00:20:28;36.20;;;20.88;;
82526;SDS011;72188;41.974;21.456;2023-08-24T00:22:54;34.05;;;20.00;;
82526;SDS011;72188;41.974;21.456;2023-08-24T00:25:20;29.50;;;18.15;;
82526;SDS011;72188;41.974;21.456;2023-08-24T00:27:46;40.65;;;19.70;;
82526;SDS011;72188;41.974;21.456;2023-08-24T00:30:12;27.85;;;18.73;;
82526;SDS011;72188;41.974;21.456;2023-08-24T00:32:38;31.92;;;19.58;;
82526;SDS011;72188;41.974;21.456;2023-08-24T00:35:05;28.17;;;19.52;;
82526;SDS011;72188;41.974;21.456;2023-08-24T00:42:23;31.38;;;19.33;;
82526;SDS011;72188;41.974;21.456;2023-08-24T00:44:49;37.90;;;18.38;;
82526;SDS011;72188;41.974;21.456;2023-08-24T00:47:16;31.02;;;17.58;;
82526;SDS011;72188;41.974;21.456;2023-08-24T00:54:35;24.02;;;17.73;;
82526;SDS011;72188;41.974;21.456;2023-08-24T00:57:02;27.40;;;19.45;;
82526;SDS011;72188;41.974;21.456;2023-08-24T00:59:28;24.08;;;18.08;;
82526;SDS011;72188;41.974;21.456;2023-08-24T01:01:54;22.25;;;18.42;;
82526;SDS011;72188;41.974;21.456;2023-08-24T01:04:22;21.98;;;18.48;;
82526;SDS011;72188;41.974;21.456;2023-08-24T01:06:48;23.17;;;18.23;;
82526;SDS011;72188;41.974;21.456;2023-08-24T01:09:14;23.63;;;18.70;;
82526;SDS011;72188;41.974;21.456;2023-08-24T01:16:34;21.92;;;17.48;;
82526;SDS011;72188;41.974;21.456;2023-08-24T01:19:05;28.02;;;20.20;;
82526;SDS011;72188;41.974;21.456;2023-08-24T01:21:32;28.77;;;19.30;;
82526;SDS011;72188;41.974;21.456;2023-08-24T01:24:12;22.92;;;19.40;;
82526;SDS011;72188;41.974;21.456;2023-08-24T01:26:39;28.65;;;18.65;;
82526;SDS011;72188;41.974;21.456;2023-08-24T01:29:06;26.33;;;18.70;;
82526;SDS011;72188;41.974;21.456;2023-08-24T01:31:32;33.38;;;19.13;;
82526;SDS011;72188;41.974;21.456;2023-08-24T01:33:59;22.20;;;18.88;;
82526;SDS011;72188;41.974;21.456;2023-08-24T01:36:26;28.05;;;19.63;;
82526;SDS011;72188;41.974;21.456;2023-08-24T01:39:11;23.67;;;18.45;;
82526;SDS011;72188;41.974;21.456;2023-08-24T01:41:40;26.48;;;19.27;;
82526;SDS011;72188;41.974;21.456;2023-08-24T01:44:08;28.70;;;20.17;;
82526;SDS011;72188;41.974;21.456;2023-08-24T01:46:35;25.58;;;19.23;;
82526;SDS011;72188;41.974;21.456;2023-08-24T01:49:02;21.52;;;18.55;;
82526;SDS011;72188;41.974;21.456;2023-08-24T01:51:28;30.90;;;20.88;;
82526;SDS011;72188;41.974;21.456;2023-08-24T01:56:23;28.20;;;19.05;;
82526;SDS011;72188;41.974;21.456;2023-08-24T01:58:49;24.23;;;19.23;;
82526;SDS011;72188;41.974;21.456;2023-08-24T02:01:15;24.13;;;18.10;;
82526;SDS011;72188;41.974;21.456;2023-08-24T02:03:41;24.20;;;18.70;;
82526;SDS011;72188;41.974;21.456;2023-08-24T02:06:08;24.38;;;19.42;;
82526;SDS011;72188;41.974;21.456;2023-08-24T02:08:34;22.65;;;18.80;;
82526;SDS011;72188;41.974;21.456;2023-08-24T02:11:00;27.50;;;19.67;;
82526;SDS011;72188;41.974;21.456;2023-08-24T02:13:26;23.02;;;18.48;;
82526;SDS011;72188;41.974;21.456;2023-08-24T02:16:02;24.20;;;18.65;;
82526;SDS011;72188;41.974;21.456;2023-08-24T02:18:28;25.40;;;18.50;;
82526;SDS011;72188;41.974;21.456;2023-08-24T02:20:54;24.95;;;19.13;;
82526;SDS011;72188;41.974;21.456;2023-08-24T02:23:20;25.48;;;19.40;;
82526;SDS011;72188;41.974;21.456;2023-08-24T02:25:47;25.80;;;19.50;;
82526;SDS011;72188;41.974;21.456;2023-08-24T02:28:13;22.83;;;18.77;;
82526;SDS011;72188;41.974;21.456;2023-08-24T02:30:39;22.75;;;19.15;;
82526;SDS011;72188;41.974;21.456;2023-08-24T02:33:05;25.10;;;19.70;;
82526;SDS011;72188;41.974;21.456;2023-08-24T02:35:31;26.00;;;19.80;;
82526;SDS011;72188;41.974;21.456;2023-08-24T02:37:57;27.33;;;19.80;;
82526;SDS011;72188;41.974;21.456;2023-08-24T02:40:23;24.98;;;20.08;;
82526;SDS011;72188;41.974;21.456;2023-08-24T02:42:49;29.48;;;19.58;;
82526;SDS011;72188;41.974;21.456;2023-08-24T02:45:15;27.50;;;18.77;;
82526;SDS011;72188;41.974;21.456;2023-08-24T02:47:41;30.50;;;19.80;;
82526;SDS011;72188;41.974;21.456;2023-08-24T02:50:07;24.55;;;19.38;;
82526;SDS011;72188;41.974;21.456;2023-08-24T02:52:34;23.95;;;18.73;;
82526;SDS011;72188;41.974;21.456;2023-08-24T02:55:00;23.35;;;19.33;;
82526;SDS011;72188;41.974;21.456;2023-08-24T02:57:26;25.88;;;20.30;;
82526;SDS011;72188;41.974;21.456;2023-08-24T02:59:52;23.02;;;19.45;;
82526;SDS011;72188;41.974;21.456;2023-08-24T03:02:18;24.65;;;18.50;;
82526;SDS011;72188;41.974;21.456;2023-08-24T03:04:44;23.20;;;18.88;;
82526;SDS011;72188;41.974;21.456;2023-08-24T03:07:11;22.13;;;19.23;;
82526;SDS011;72188;41.974;21.456;2023-08-24T03:09:37;26.27;;;19.80;;
82526;SDS011;72188;41.974;21.456;2023-08-24T03:12:03;30.90;;;20.27;;
82526;SDS011;72188;41.974;21.456;2023-08-24T03:14:29;23.65;;;20.13;;
82526;SDS011;72188;41.974;21.456;2023-08-24T03:16:55;22.02;;;19.33;;
82526;SDS011;72188;41.974;21.456;2023-08-24T03:19:21;25.60;;;19.98;;
82526;SDS011;72188;41.974;21.456;2023-08-24T03:21:47;25.70;;;19.45;;
82526;SDS011;72188;41.974;21.456;2023-08-24T03:24:13;22.77;;;19.73;;
82526;SDS011;72188;41.974;21.456;2023-08-24T03:26:40;26.17;;;19.98;;
82526;SDS011;72188;41.974;21.456;2023-08-24T03:29:06;28.60;;;19.67;;
82526;SDS011;72188;41.974;21.456;2023-08-24T03:31:32;25.13;;;18.77;;
82526;SDS011;72188;41.974;21.456;2023-08-24T03:33:58;23.92;;;18.60;;
82526;SDS011;72188;41.974;21.456;2023-08-24T03:36:24;26.70;;;20.52;;
82526;SDS011;72188;41.974;21.456;2023-08-24T03:38:50;24.58;;;19.30;;
82526;SDS011;72188;41.974;21.456;2023-08-24T03:41:16;25.02;;;19.30;;
82526;SDS011;72188;41.974;21.456;2023-08-24T03:43:42;25.33;;;19.38;;
82526;SDS011;72188;41.974;21.456;2023-08-24T03:46:08;27.10;;;18.40;;
82526;SDS011;72188;41.974;21.456;2023-08-24T03:48:34;25.80;;;19.70;;
82526;SDS011;72188;41.974;21.456;2023-08-24T03:51:01;25.88;;;19.23;;
82526;SDS011;72188;41.974;21.456;2023-08-24T03:53:27;27.02;;;19.92;;
82526;SDS011;72188;41.974;21.456;2023-08-24T03:55:53;26.52;;;20.08;;
82526;SDS011;72188;41.974;21.456;2023-08-24T03:58:19;28.73;;;19.75;;
82526;SDS011;72188;41.974;21.456;2023-08-24T04:00:46;25.75;;;19.40;;
82526;SDS011;72188;41.974;21.456;2023-08-24T04:03:12;31.08;;;19.30;;
82526;SDS011;72188;41.974;21.456;2023-08-24T04:05:38;29.42;;;19.30;;
82526;SDS011;72188;41.974;21.456;2023-08-24T04:08:04;26.20;;;19.40;;
82526;SDS011;72188;41.974;21.456;2023-08-24T04:10:30;23.27;;;20.08;;
82526;SDS011;72188;41.974;21.456;2023-08-24T04:12:56;25.80;;;19.23;;
82526;SDS011;72188;41.974;21.456;2023-08-24T04:15:23;26.15;;;18.77;;
82526;SDS011;72188;41.974;21.456;2023-08-24T04:17:49;25.17;;;18.77;;
82526;SDS011;72188;41.974;21.456;2023-08-24T04:20:15;30.55;;;21.35;;
82526;SDS011;72188;41.974;21.456;2023-08-24T04:22:41;27.63;;;20.13;;
82526;SDS011;72188;41.974;21.456;2023-08-24T04:25:07;27.30;;;20.63;;
82526;SDS011;72188;41.974;21.456;2023-08-24T04:27:34;27.98;;;20.38;;
82526;SDS011;72188;41.974;21.456;2023-08-24T04:30:00;25.50;;;19.67;;
82526;SDS011;72188;41.974;21.456;2023-08-24T04:32:28;28.73;;;19.77;;
82526;SDS011;72188;41.974;21.456;2023-08-24T04:34:54;24.08;;;19.42;;
82526;SDS011;72188;41.974;21.456;2023-08-24T04:37:20;30.17;;;19.05;;
82526;SDS011;72188;41.974;21.456;2023-08-24T04:39:46;23.80;;;19.75;;
82526;SDS011;72188;41.974;21.456;2023-08-24T04:42:12;29.52;;;20.35;;
82526;SDS011;72188;41.974;21.456;2023-08-24T04:44:38;29.00;;;20.13;;
82526;SDS011;72188;41.974;21.456;2023-08-24T04:47:05;29.27;;;19.17;;
82526;SDS011;72188;41.974;21.456;2023-08-24T04:49:31;24.05;;;18.73;;
82526;SDS011;72188;41.974;21.456;2023-08-24T04:51:57;25.10;;;19.20;;
82526;SDS011;72188;41.974;21.456;2023-08-24T04:54:23;24.75;;;19.42;;
82526;SDS011;72188;41.974;21.456;2023-08-24T04:56:49;25.55;;;18.02;;
82526;SDS011;72188;41.974;21.456;2023-08-24T04:59:15;21.55;;;18.63;;
82526;SDS011;72188;41.974;21.456;2023-08-24T05:01:41;26.75;;;19.75;;
82526;SDS011;72188;41.974;21.456;2023-08-24T05:04:07;25.27;;;20.13;;
82526;SDS011;72188;41.974;21.456;2023-08-24T05:06:33;25.63;;;19.02;;
82526;SDS011;72188;41.974;21.456;2023-08-24T05:09:00;26.80;;;20.48;;
82526;SDS011;72188;41.974;21.456;2023-08-24T05:11:26;21.83;;;18.20;;
82526;SDS011;72188;41.974;21.456;2023-08-24T05:13:54;28.80;;;19.00;;
82526;SDS011;72188;41.974;21.456;2023-08-24T05:18:47;25.23;;;17.45;;
82526;SDS011;72188;41.974;21.456;2023-08-24T05:21:13;25.55;;;17.27;;
82526;SDS011;72188;41.974;21.456;2023-08-24T05:23:39;23.13;;;17.67;;
82526;SDS011;72188;41.974;21.456;2023-08-24T05:26:05;21.75;;;17.27;;
82526;SDS011;72188;41.974;21.456;2023-08-24T05:28:31;24.30;;;17.65;;
82526;SDS011;72188;41.974;21.456;2023-08-24T05:30:58;19.75;;;17.42;;
82526;SDS011;72188;41.974;21.456;2023-08-24T05:33:24;21.85;;;17.70;;
82526;SDS011;72188;41.974;21.456;2023-08-24T05:35:51;20.70;;;17.17;;
82526;SDS011;72188;41.974;21.456;2023-08-24T05:38:17;21.73;;;16.85;;
82526;SDS011;72188;41.974;21.456;2023-08-24T05:40:43;24.45;;;17.73;;
82526;SDS011;72188;41.974;21.456;2023-08-24T05:43:12;20.25;;;17.73;;
82526;SDS011;72188;41.974;21.456;2023-08-24T05:45:38;24.27;;;18.00;;
82526;SDS011;72188;41.974;21.456;2023-08-24T05:48:05;21.30;;;17.00;;
82526;SDS011;72188;41.974;21.456;2023-08-24T05:50:32;24.05;;;18.08;;
82526;SDS011;72188;41.974;21.456;2023-08-24T05:52:58;22.98;;;17.80;;
82526;SDS011;72188;41.974;21.456;2023-08-24T05:55:24;21.75;;;18.30;;
82526;SDS011;72188;41.974;21.456;2023-08-24T05:57:50;21.42;;;17.90;;
82526;SDS011;72188;41.974;21.456;2023-08-24T06:00:16;21.15;;;17.50;;
82526;SDS011;72188;41.974;21.456;2023-08-24T06:02:42;21.30;;;17.90;;
82526;SDS011;72188;41.974;21.456;2023-08-24T06:05:08;20.38;;;16.95;;
82526;SDS011;72188;41.974;21.456;2023-08-24T06:07:36;21.40;;;17.90;;
82526;SDS011;72188;41.974;21.456;2023-08-24T06:10:02;26.40;;;18.45;;
82526;SDS011;72188;41.974;21.456;2023-08-24T06:12:28;20.45;;;16.48;;
82526;SDS011;72188;41.974;21.456;2023-08-24T06:14:54;22.25;;;17.33;;
82526;SDS011;72188;41.974;21.456;2023-08-24T06:17:20;17.80;;;15.88;;
82526;SDS011;72188;41.974;21.456;2023-08-24T06:19:46;26.25;;;16.83;;
82526;SDS011;72188;41.974;21.456;2023-08-24T06:22:12;21.25;;;16.88;;
82526;SDS011;72188;41.974;21.456;2023-08-24T06:24:38;18.90;;;15.68;;
82526;SDS011;72188;41.974;21.456;2023-08-24T06:27:04;24.55;;;16.50;;
82526;SDS011;72188;41.974;21.456;2023-08-24T06:29:31;20.63;;;15.95;;
82526;SDS011;72188;41.974;21.456;2023-08-24T06:31:57;19.73;;;15.82;;
82526;SDS011;72188;41.974;21.456;2023-08-24T06:34:23;20.48;;;14.70;;
82526;SDS011;72188;41.974;21.456;2023-08-24T06:36:49;23.70;;;15.85;;
82526;SDS011;72188;41.974;21.456;2023-08-24T06:39:16;19.08;;;14.32;;
82526;SDS011;72188;41.974;21.456;2023-08-24T06:41:42;23.48;;;17.08;;
82526;SDS011;72188;41.974;21.456;2023-08-24T06:44:08;23.63;;;16.42;;
82526;SDS011;72188;41.974;21.456;2023-08-24T06:46:34;23.80;;;16.02;;
82526;SDS011;72188;41.974;21.456;2023-08-24T06:49:00;17.65;;;15.93;;
82526;SDS011;72188;41.974;21.456;2023-08-24T06:51:27;27.15;;;15.85;;
82526;SDS011;72188;41.974;21.456;2023-08-24T06:53:54;19.92;;;15.45;;
82526;SDS011;72188;41.974;21.456;2023-08-24T06:56:20;18.25;;;16.35;;
82526;SDS011;72188;41.974;21.456;2023-08-24T06:58:47;23.77;;;15.43;;
82526;SDS011;72188;41.974;21.456;2023-08-24T07:01:13;18.98;;;15.85;;
82526;SDS011;72188;41.974;21.456;2023-08-24T07:03:39;17.90;;;15.80;;
82526;SDS011;72188;41.974;21.456;2023-08-24T07:06:06;21.88;;;17.30;;
82526;SDS011;72188;41.974;21.456;2023-08-24T07:08:32;20.77;;;16.55;;
82526;SDS011;72188;41.974;21.456;2023-08-24T07:10:59;19.48;;;15.73;;
82526;SDS011;72188;41.974;21.456;2023-08-24T07:13:25;23.33;;;16.55;;
82526;SDS011;72188;41.974;21.456;2023-08-24T07:15:51;22.60;;;17.25;;
82526;SDS011;72188;41.974;21.456;2023-08-24T07:18:17;21.55;;;16.90;;
82526;SDS011;72188;41.974;21.456;2023-08-24T07:20:43;19.70;;;16.73;;
82526;SDS011;72188;41.974;21.456;2023-08-24T07:23:09;18.77;;;16.77;;
82526;SDS011;72188;41.974;21.456;2023-08-24T07:25:36;23.38;;;16.83;;
82526;SDS011;72188;41.974;21.456;2023-08-24T07:28:02;27.27;;;17.02;;
82526;SDS011;72188;41.974;21.456;2023-08-24T07:30:30;20.65;;;16.83;;
82526;SDS011;72188;41.974;21.456;2023-08-24T07:32:56;22.83;;;16.88;;
82526;SDS011;72188;41.974;21.456;2023-08-24T07:35:22;19.25;;;16.60;;
82526;SDS011;72188;41.974;21.456;2023-08-24T07:37:51;25.85;;;16.85;;
82526;SDS011;72188;41.974;21.456;2023-08-24T07:40:18;21.45;;;15.35;;
82526;SDS011;72188;41.974;21.456;2023-08-24T07:42:48;19.52;;;16.10;;
82526;SDS011;72188;41.974;21.456;2023-08-24T07:45:16;18.27;;;15.20;;
82526;SDS011;72188;41.974;21.456;2023-08-24T07:50:08;22.63;;;15.50;;
82526;SDS011;72188;41.974;21.456;2023-08-24T07:52:35;19.17;;;14.65;;
82526;SDS011;72188;41.974;21.456;2023-08-24T07:55:01;17.15;;;14.00;;
82526;SDS011;72188;41.974;21.456;2023-08-24T07:57:29;16.83;;;14.48;;
82526;SDS011;72188;41.974;21.456;2023-08-24T07:59:56;19.77;;;14.88;;
82526;SDS011;72188;41.974;21.456;2023-08-24T08:02:23;19.67;;;14.80;;
82526;SDS011;72188;41.974;21.456;2023-08-24T08:04:49;26.92;;;15.18;;
82526;SDS011;72188;41.974;21.456;2023-08-24T08:07:15;16.77;;;14.20;;
82526;SDS011;72188;41.974;21.456;2023-08-24T08:09:42;20.05;;;15.18;;
82526;SDS011;72188;41.974;21.456;2023-08-24T08:12:08;16.67;;;14.70;;
82526;SDS011;72188;41.974;21.456;2023-08-24T08:14:34;16.58;;;14.23;;
82526;SDS011;72188;41.974;21.456;2023-08-24T08:17:00;21.77;;;15.27;;
82526;SDS011;72188;41.974;21.456;2023-08-24T08:19:26;17.92;;;13.50;;
82526;SDS011;72188;41.974;21.456;2023-08-24T08:21:54;20.77;;;14.13;;
82526;SDS011;72188;41.974;21.456;2023-08-24T08:24:20;17.92;;;14.18;;
82526;SDS011;72188;41.974;21.456;2023-08-24T08:26:46;22.23;;;14.05;;
82526;SDS011;72188;41.974;21.456;2023-08-24T08:29:12;19.38;;;14.88;;
82526;SDS011;72188;41.974;21.456;2023-08-24T08:31:38;19.40;;;15.02;;
82526;SDS011;72188;41.974;21.456;2023-08-24T08:34:04;16.63;;;14.82;;
82526;SDS011;72188;41.974;21.456;2023-08-24T08:36:30;15.23;;;12.73;;
82526;SDS011;72188;41.974;21.456;2023-08-24T08:38:59;18.73;;;15.07;;
82526;SDS011;72188;41.974;21.456;2023-08-24T08:41:27;20.98;;;15.75;;
82526;SDS011;72188;41.974;21.456;2023-08-24T08:43:56;15.73;;;14.07;;
82526;SDS011;72188;41.974;21.456;2023-08-24T08:46:23;25.30;;;17.45;;
82526;SDS011;72188;41.974;21.456;2023-08-24T08:48:51;14.70;;;13.15;;
82526;SDS011;72188;41.974;21.456;2023-08-24T08:51:17;17.50;;;14.23;;
82526;SDS011;72188;41.974;21.456;2023-08-24T08:53:43;14.50;;;12.98;;
82526;SDS011;72188;41.974;21.456;2023-08-24T08:58:36;13.60;;;12.20;;
82526;SDS011;72188;41.974;21.456;2023-08-24T09:01:03;14.35;;;12.73;;
82526;SDS011;72188;41.974;21.456;2023-08-24T09:03:31;20.48;;;14.25;;
82526;SDS011;72188;41.974;21.456;2023-08-24T09:05:57;13.70;;;11.30;;
82526;SDS011;72188;41.974;21.456;2023-08-24T09:08:26;13.27;;;11.88;;
82526;SDS011;72188;41.974;21.456;2023-08-24T09:10:53;15.15;;;13.35;;
82526;SDS011;72188;41.974;21.456;2023-08-24T09:13:20;17.85;;;12.60;;
82526;SDS011;72188;41.974;21.456;2023-08-24T09:15:46;18.85;;;12.57;;
82526;SDS011;72188;41.974;21.456;2023-08-24T09:18:12;15.85;;;12.77;;
82526;SDS011;72188;41.974;21.456;2023-08-24T09:20:39;15.93;;;13.07;;
82526;SDS011;72188;41.974;21.456;2023-08-24T09:23:06;17.05;;;12.88;;
82526;SDS011;72188;41.974;21.456;2023-08-24T09:25:47;13.15;;;11.73;;
82526;SDS011;72188;41.974;21.456;2023-08-24T09:28:14;13.35;;;12.05;;
82526;SDS011;72188;41.974;21.456;2023-08-24T09:30:49;12.07;;;10.65;;
82526;SDS011;72188;41.974;21.456;2023-08-24T09:33:17;12.93;;;10.85;;
82526;SDS011;72188;41.974;21.456;2023-08-24T09:35:44;12.98;;;10.48;;
82526;SDS011;72188;41.974;21.456;2023-08-24T09:38:20;16.63;;;12.10;;
82526;SDS011;72188;41.974;21.456;2023-08-24T09:40:46;26.92;;;20.17;;
82526;SDS011;72188;41.974;21.456;2023-08-24T09:43:13;16.38;;;11.18;;
82526;SDS011;72188;41.974;21.456;2023-08-24T09:45:49;17.35;;;11.40;;
82526;SDS011;72188;41.974;21.456;2023-08-24T09:48:15;14.25;;;10.77;;
82526;SDS011;72188;41.974;21.456;2023-08-24T09:50:45;15.63;;;11.75;;
82526;SDS011;72188;41.974;21.456;2023-08-24T09:53:18;12.00;;;10.73;;
82526;SDS011;72188;41.974;21.456;2023-08-24T09:55:50;14.73;;;10.90;;
82526;SDS011;72188;41.974;21.456;2023-08-24T09:58:19;11.65;;;10.57;;
82526;SDS011;72188;41.974;21.456;2023-08-24T10:00:46;12.35;;;10.18;;
82526;SDS011;72188;41.974;21.456;2023-08-24T10:03:14;11.50;;;10.38;;
82526;SDS011;72188;41.974;21.456;2023-08-24T10:05:44;11.88;;;10.75;;
82526;SDS011;72188;41.974;21.456;2023-08-24T10:08:10;14.73;;;11.20;;
82526;SDS011;72188;41.974;21.456;2023-08-24T10:10:37;11.32;;;10.02;;
82526;SDS011;72188;41.974;21.456;2023-08-24T10:13:06;17.02;;;11.68;;
82526;SDS011;72188;41.974;21.456;2023-08-24T10:15:33;11.60;;;10.48;;
82526;SDS011;72188;41.974;21.456;2023-08-24T10:18:00;13.45;;;10.70;;
82526;SDS011;72188;41.974;21.456;2023-08-24T10:20:27;11.70;;;10.38;;
82526;SDS011;72188;41.974;21.456;2023-08-24T10:22:56;11.57;;;10.43;;
82526;SDS011;72188;41.974;21.456;2023-08-24T10:25:23;10.48;;;9.45;;
82526;SDS011;72188;41.974;21.456;2023-08-24T10:27:49;11.32;;;10.23;;
82526;SDS011;72188;41.974;21.456;2023-08-24T10:30:16;11.90;;;10.75;;
82526;SDS011;72188;41.974;21.456;2023-08-24T10:32:43;13.70;;;12.27;;
82526;SDS011;72188;41.974;21.456;2023-08-24T10:35:10;13.18;;;11.10;;
82526;SDS011;72188;41.974;21.456;2023-08-24T10:37:40;13.48;;;11.50;;
82526;SDS011;72188;41.974;21.456;2023-08-24T10:40:06;14.20;;;11.13;;
82526;SDS011;72188;41.974;21.456;2023-08-24T10:42:43;14.40;;;11.02;;
82526;SDS011;72188;41.974;21.456;2023-08-24T10:45:10;12.88;;;10.73;;
82526;SDS011;72188;41.974;21.456;2023-08-24T10:47:43;14.38;;;11.27;;
82526;SDS011;72188;41.974;21.456;2023-08-24T10:50:10;12.32;;;11.00;;
82526;SDS011;72188;41.974;21.456;2023-08-24T10:52:37;11.65;;;10.55;;
82526;SDS011;72188;41.974;21.456;2023-08-24T10:55:05;13.60;;;10.75;;
82526;SDS011;72188;41.974;21.456;2023-08-24T10:57:34;12.45;;;11.20;;
82526;SDS011;72188;41.974;21.456;2023-08-24T11:00:07;13.32;;;11.57;;
82526;SDS011;72188;41.974;21.456;2023-08-24T11:02:47;12.43;;;11.10;;
82526;SDS011;72188;41.974;21.456;2023-08-24T11:10:15;12.95;;;11.50;;
82526;SDS011;72188;41.974;21.456;2023-08-24T11:15:30;12.93;;;11.55;;
82526;SDS011;72188;41.974;21.456;2023-08-24T11:20:41;13.98;;;10.63;;
82526;SDS011;72188;41.974;21.456;2023-08-24T11:23:07;13.13;;;10.77;;
82526;SDS011;72188;41.974;21.456;2023-08-24T11:25:38;12.18;;;10.43;;
82526;SDS011;72188;41.974;21.456;2023-08-24T11:28:04;12.25;;;10.93;;
82526;SDS011;72188;41.974;21.456;2023-08-24T11:30:31;12.02;;;10.40;;
82526;SDS011;72188;41.974;21.456;2023-08-24T11:33:01;11.50;;;10.30;;
82526;SDS011;72188;41.974;21.456;2023-08-24T11:35:27;11.88;;;10.02;;
82526;SDS011;72188;41.974;21.456;2023-08-24T11:37:54;10.70;;;9.60;;
82526;SDS011;72188;41.974;21.456;2023-08-24T11:40:21;11.85;;;10.57;;
82526;SDS011;72188;41.974;21.456;2023-08-24T11:42:54;12.27;;;10.98;;
82526;SDS011;72188;41.974;21.456;2023-08-24T11:45:20;17.83;;;11.27;;
82526;SDS011;72188;41.974;21.456;2023-08-24T11:47:47;13.82;;;10.13;;
82526;SDS011;72188;41.974;21.456;2023-08-24T11:50:13;14.57;;;9.63;;
82526;SDS011;72188;41.974;21.456;2023-08-24T11:55:06;20.33;;;11.90;;
82526;SDS011;72188;41.974;21.456;2023-08-24T11:57:34;13.57;;;8.48;;
82526;SDS011;72188;41.974;21.456;2023-08-24T12:00:00;11.30;;;7.80;;
82526;SDS011;72188;41.974;21.456;2023-08-24T12:02:26;19.63;;;10.75;;
82526;SDS011;72188;41.974;21.456;2023-08-24T12:04:53;26.63;;;13.15;;
82526;SDS011;72188;41.974;21.456;2023-08-24T12:07:20;17.75;;;11.85;;
82526;SDS011;72188;41.974;21.456;2023-08-24T12:09:46;39.60;;;24.45;;
82526;SDS011;72188;41.974;21.456;2023-08-24T12:12:15;21.98;;;14.15;;
82526;SDS011;72188;41.974;21.456;2023-08-24T12:14:45;19.73;;;12.50;;
82526;SDS011;72188;41.974;21.456;2023-08-24T12:17:12;18.92;;;11.88;;
82526;SDS011;72188;41.974;21.456;2023-08-24T12:19:57;20.42;;;13.77;;
82526;SDS011;72188;41.974;21.456;2023-08-24T12:22:24;19.65;;;13.07;;
82526;SDS011;72188;41.974;21.456;2023-08-24T12:24:50;24.45;;;15.75;;
82526;SDS011;72188;41.974;21.456;2023-08-24T12:27:20;26.80;;;19.33;;
82526;SDS011;72188;41.974;21.456;2023-08-24T12:29:46;24.77;;;16.15;;
82526;SDS011;72188;41.974;21.456;2023-08-24T12:32:13;36.15;;;20.88;;
82526;SDS011;72188;41.974;21.456;2023-08-24T12:34:41;28.15;;;18.90;;
82526;SDS011;72188;41.974;21.456;2023-08-24T12:37:10;29.40;;;17.50;;
82526;SDS011;72188;41.974;21.456;2023-08-24T12:39:36;24.73;;;17.63;;
82526;SDS011;72188;41.974;21.456;2023-08-24T12:42:03;28.38;;;19.25;;
82526;SDS011;72188;41.974;21.456;2023-08-24T12:49:21;31.42;;;24.10;;
82526;SDS011;72188;41.974;21.456;2023-08-24T12:51:47;34.80;;;22.73;;
82526;SDS011;72188;41.974;21.456;2023-08-24T12:54:13;37.47;;;23.13;;
82526;SDS011;72188;41.974;21.456;2023-08-24T12:56:39;36.40;;;21.23;;
82526;SDS011;72188;41.974;21.456;2023-08-24T12:59:06;38.28;;;22.63;;
82526;SDS011;72188;41.974;21.456;2023-08-24T13:01:32;32.08;;;20.55;;
82526;SDS011;72188;41.974;21.456;2023-08-24T13:03:58;34.45;;;21.70;;
82526;SDS011;72188;41.974;21.456;2023-08-24T13:06:24;31.58;;;21.00;;
82526;SDS011;72188;41.974;21.456;2023-08-24T13:08:52;31.30;;;21.17;;
82526;SDS011;72188;41.974;21.456;2023-08-24T13:11:18;31.60;;;22.35;;
82526;SDS011;72188;41.974;21.456;2023-08-24T13:13:44;28.35;;;20.95;;
82526;SDS011;72188;41.974;21.456;2023-08-24T13:16:10;25.48;;;19.30;;
82526;SDS011;72188;41.974;21.456;2023-08-24T13:18:37;34.00;;;20.45;;
82526;SDS011;72188;41.974;21.456;2023-08-24T13:21:03;27.83;;;20.55;;
82526;SDS011;72188;41.974;21.456;2023-08-24T13:23:29;32.92;;;21.45;;
82526;SDS011;72188;41.974;21.456;2023-08-24T13:25:57;28.60;;;20.98;;
82526;SDS011;72188;41.974;21.456;2023-08-24T13:28:23;26.92;;;18.30;;
82526;SDS011;72188;41.974;21.456;2023-08-24T13:30:51;27.98;;;20.27;;
82526;SDS011;72188;41.974;21.456;2023-08-24T13:33:18;24.77;;;18.83;;
82526;SDS011;72188;41.974;21.456;2023-08-24T13:35:44;25.77;;;19.73;;
82526;SDS011;72188;41.974;21.456;2023-08-24T13:38:11;25.90;;;17.70;;
82526;SDS011;72188;41.974;21.456;2023-08-24T13:40:37;30.73;;;16.67;;
82526;SDS011;72188;41.974;21.456;2023-08-24T13:43:03;22.77;;;15.70;;
82526;SDS011;72188;41.974;21.456;2023-08-24T13:45:29;32.72;;;15.30;;
82526;SDS011;72188;41.974;21.456;2023-08-24T13:47:56;22.08;;;13.80;;
82526;SDS011;72188;41.974;21.456;2023-08-24T13:50:22;16.60;;;13.68;;
82526;SDS011;72188;41.974;21.456;2023-08-24T13:52:49;18.40;;;13.20;;
82526;SDS011;72188;41.974;21.456;2023-08-24T13:55:15;14.70;;;13.20;;
82526;SDS011;72188;41.974;21.456;2023-08-24T13:57:44;20.30;;;13.15;;
82526;SDS011;72188;41.974;21.456;2023-08-24T14:00:10;16.35;;;13.57;;
82526;SDS011;72188;41.974;21.456;2023-08-24T14:02:36;17.10;;;13.13;;
82526;SDS011;72188;41.974;21.456;2023-08-24T14:05:02;18.42;;;12.02;;
82526;SDS011;72188;41.974;21.456;2023-08-24T14:07:29;34.90;;;30.60;;
82526;SDS011;72188;41.974;21.456;2023-08-24T14:09:55;18.70;;;13.50;;
82526;SDS011;72188;41.974;21.456;2023-08-24T14:12:21;17.13;;;12.43;;
82526;SDS011;72188;41.974;21.456;2023-08-24T14:14:47;18.83;;;12.45;;
82526;SDS011;72188;41.974;21.456;2023-08-24T14:17:13;21.55;;;17.55;;
82526;SDS011;72188;41.974;21.456;2023-08-24T14:19:40;17.58;;;13.00;;
82526;SDS011;72188;41.974;21.456;2023-08-24T14:22:12;14.85;;;12.07;;
82526;SDS011;72188;41.974;21.456;2023-08-24T14:24:38;16.35;;;12.70;;
82526;SDS011;72188;41.974;21.456;2023-08-24T14:27:04;19.77;;;13.10;;
82526;SDS011;72188;41.974;21.456;2023-08-24T14:29:30;31.92;;;13.75;;
82526;SDS011;72188;41.974;21.456;2023-08-24T14:31:56;22.23;;;13.15;;
82526;SDS011;72188;41.974;21.456;2023-08-24T14:34:22;24.80;;;14.65;;
82526;SDS011;72188;41.974;21.456;2023-08-24T14:36:48;26.45;;;14.02;;
82526;SDS011;72188;41.974;21.456;2023-08-24T14:39:14;27.23;;;14.15;;
82526;SDS011;72188;41.974;21.456;2023-08-24T14:41:41;24.67;;;15.20;;
82526;SDS011;72188;41.974;21.456;2023-08-24T14:44:07;29.77;;;16.35;;
82526;SDS011;72188;41.974;21.456;2023-08-24T14:46:33;18.42;;;14.55;;
82526;SDS011;72188;41.974;21.456;2023-08-24T14:48:59;29.15;;;16.23;;